createdAt,value
2023-05-04T00:02:17.372Z,9.60
2023-05-04T00:05:06.288Z,9.40
2023-05-04T00:07:54.452Z,9.60
2023-05-04T00:10:41.795Z,9.60
2023-05-04T00:13:29.353Z,9.40
2023-05-04T00:16:16.841Z,10.30
2023-05-04T00:19:05.554Z,9.10
2023-05-04T00:21:52.698Z,9.00
2023-05-04T00:24:40.193Z,8.90
2023-05-04T00:27:27.737Z,8.70
2023-05-04T00:30:15.864Z,8.70
2023-05-04T00:33:03.461Z,8.60
2023-05-04T00:35:52.569Z,8.60
2023-05-04T00:38:48.221Z,8.90
2023-05-04T00:41:35.955Z,8.70
2023-05-04T00:44:24.222Z,8.80
2023-05-04T00:47:13.052Z,8.70
2023-05-04T00:50:01.235Z,8.80
2023-05-04T00:52:50.753Z,8.80
2023-05-04T00:55:39.878Z,8.70
2023-05-04T00:58:27.580Z,8.60
2023-05-04T01:01:15.144Z,8.40
2023-05-04T01:04:03.261Z,8.40
2023-05-04T01:06:54.217Z,8.30
2023-05-04T01:09:44.522Z,8.30
2023-05-04T01:12:35.533Z,8.20
2023-05-04T01:15:23.946Z,8.20
2023-05-04T01:18:12.160Z,8.20
2023-05-04T01:20:59.559Z,8.10
2023-05-04T01:23:49.122Z,8.00
2023-05-04T01:26:40.489Z,8.10
2023-05-04T01:29:30.858Z,8.00
2023-05-04T01:32:18.797Z,7.90
2023-05-04T01:35:06.487Z,8.00
2023-05-04T01:37:54.639Z,8.00
2023-05-04T01:40:43.302Z,8.00
2023-05-04T01:43:32.485Z,8.10
2023-05-04T01:46:20.084Z,8.30
2023-05-04T01:49:08.168Z,8.10
2023-05-04T01:51:55.253Z,8.10
2023-05-04T01:54:45.048Z,8.00
2023-05-04T01:57:33.637Z,8.10
2023-05-04T02:00:21.177Z,8.00
2023-05-04T02:03:09.727Z,8.20
2023-05-04T02:05:57.533Z,8.30
2023-05-04T02:08:45.119Z,8.40
2023-05-04T02:11:32.498Z,7.90
2023-05-04T02:14:22.592Z,7.90
2023-05-04T02:17:10.265Z,7.80
2023-05-04T02:19:57.486Z,7.70
2023-05-04T02:22:45.745Z,7.70
2023-05-04T02:25:33.457Z,7.80
2023-05-04T02:28:20.745Z,7.60
2023-05-04T02:31:09.626Z,8.00
2023-05-04T02:33:56.888Z,7.50
2023-05-04T02:36:44.389Z,7.50
2023-05-04T02:39:32.121Z,7.50
2023-05-04T02:42:20.359Z,7.40
2023-05-04T02:45:08.843Z,7.50
2023-05-04T02:47:57.983Z,7.50
2023-05-04T02:50:46.634Z,7.50
2023-05-04T02:53:33.978Z,7.40
2023-05-04T02:56:21.528Z,7.30
2023-05-04T02:59:08.806Z,7.30
2023-05-04T03:01:56.519Z,7.20
2023-05-04T03:04:45.680Z,7.20
2023-05-04T03:07:33.839Z,7.10
2023-05-04T03:10:21.237Z,7.10
2023-05-04T03:13:08.686Z,7.10
2023-05-04T03:15:56.108Z,7.00
2023-05-04T03:18:43.774Z,7.40
2023-05-04T03:21:32.802Z,7.00
2023-05-04T03:24:20.431Z,7.10
2023-05-04T03:27:07.920Z,6.90
2023-05-04T03:29:57.681Z,6.90
2023-05-04T03:32:45.953Z,6.90
2023-05-04T03:35:34.037Z,6.80
2023-05-04T03:38:24.762Z,6.90
2023-05-04T03:41:13.078Z,6.80
2023-05-04T03:44:00.200Z,6.70
2023-05-04T03:46:47.823Z,6.70
2023-05-04T03:49:35.889Z,6.70
2023-05-04T03:52:22.914Z,6.70
2023-05-04T03:55:12.188Z,6.70
2023-05-04T03:58:02.083Z,6.60
2023-05-04T04:00:49.798Z,7.00
2023-05-04T04:03:39.078Z,6.60
2023-05-04T04:06:26.707Z,6.50
2023-05-04T04:09:14.220Z,6.60
2023-05-04T04:12:03.559Z,6.50
2023-05-04T04:14:52.562Z,6.50
2023-05-04T04:17:40.204Z,6.50
2023-05-04T04:20:31.149Z,6.50
2023-05-04T04:23:19.463Z,6.60
2023-05-04T04:26:07.551Z,6.50
2023-05-04T04:28:59.363Z,6.50
2023-05-04T04:31:47.417Z,6.50
2023-05-04T04:34:35.802Z,6.50
2023-05-04T04:37:23.573Z,5.60
2023-05-04T04:40:14.636Z,6.60
2023-05-04T04:43:03.305Z,6.60
2023-05-04T04:45:53.962Z,6.70
2023-05-04T04:48:42.594Z,6.70
2023-05-04T04:51:30.003Z,6.80
2023-05-04T04:54:17.292Z,6.90
2023-05-04T04:57:06.297Z,7.00
2023-05-04T04:59:54.569Z,7.10
2023-05-04T05:02:43.867Z,7.10
2023-05-04T05:05:31.894Z,7.20
2023-05-04T05:08:19.401Z,7.30
2023-05-04T05:11:07.414Z,7.30
2023-05-04T05:13:54.764Z,7.70
2023-05-04T05:16:42.382Z,7.50
2023-05-04T05:19:34.334Z,7.60
2023-05-04T05:22:22.670Z,7.60
2023-05-04T05:25:10.561Z,7.70
2023-05-04T05:27:58.030Z,7.80
2023-05-04T05:30:45.920Z,7.90
2023-05-04T05:33:33.899Z,8.00
2023-05-04T05:36:22.750Z,8.10
2023-05-04T05:39:10.520Z,8.20
2023-05-04T05:41:58.913Z,8.20
2023-05-04T05:44:46.777Z,8.30
2023-05-04T05:47:35.002Z,8.40
2023-05-04T05:50:24.193Z,8.50
2023-05-04T05:53:14.060Z,8.60
2023-05-04T05:56:01.788Z,10.20
2023-05-04T05:58:49.703Z,8.80
2023-05-04T06:01:37.262Z,8.90
2023-05-04T06:04:24.625Z,10.00
2023-05-04T06:07:13.770Z,8.00
2023-05-04T06:10:03.094Z,9.40
2023-05-04T06:12:53.615Z,9.90
2023-05-04T06:15:41.757Z,10.00
2023-05-04T06:18:29.219Z,10.60
2023-05-04T06:21:16.739Z,10.50
2023-05-04T06:24:07.750Z,10.70
2023-05-04T06:27:00.768Z,10.70
2023-05-04T06:29:53.797Z,11.00
2023-05-04T06:32:41.093Z,11.20
2023-05-04T06:35:31.157Z,11.20
2023-05-04T06:38:22.252Z,11.30
2023-05-04T06:41:13.386Z,11.20
2023-05-04T06:44:06.800Z,11.40
2023-05-04T06:46:54.458Z,11.50
2023-05-04T06:49:41.966Z,11.70
2023-05-04T06:52:30.070Z,11.80
2023-05-04T06:55:18.007Z,11.90
2023-05-04T06:58:05.952Z,12.10
2023-05-04T07:00:55.237Z,14.40
2023-05-04T07:03:43.273Z,12.40
2023-05-04T07:06:32.470Z,12.70
2023-05-04T07:09:20.086Z,13.10
2023-05-04T07:12:07.319Z,13.00
2023-05-04T07:14:55.215Z,13.30
2023-05-04T07:17:44.231Z,13.40
2023-05-04T07:20:31.798Z,13.70
2023-05-04T07:23:19.210Z,13.70
2023-05-04T07:26:08.217Z,13.70
2023-05-04T07:28:55.653Z,14.10
2023-05-04T07:31:43.687Z,14.10
2023-05-04T07:34:44.583Z,14.10
2023-05-04T07:37:33.930Z,14.30
2023-05-04T07:40:21.757Z,14.40
2023-05-04T07:43:09.106Z,14.30
2023-05-04T07:45:57.442Z,14.20
2023-05-04T07:48:44.947Z,14.30
2023-05-04T07:51:34.722Z,14.50
2023-05-04T07:54:23.449Z,14.20
2023-05-04T07:57:11.209Z,14.40
2023-05-04T07:59:59.396Z,14.50
2023-05-04T08:02:47.576Z,14.70
2023-05-04T08:05:35.389Z,14.60
2023-05-04T08:08:25.486Z,14.50
2023-05-04T08:11:20.686Z,14.60
2023-05-04T08:14:09.283Z,14.80
2023-05-04T08:16:57.005Z,15.00
2023-05-04T08:19:45.223Z,15.10
2023-05-04T08:22:33.625Z,15.30
2023-05-04T08:25:25.816Z,15.60
2023-05-04T08:28:13.635Z,16.80
2023-05-04T08:31:01.271Z,15.90
2023-05-04T08:33:51.584Z,16.00
2023-05-04T08:36:39.562Z,16.10
2023-05-04T08:39:27.994Z,16.30
2023-05-04T08:42:27.673Z,16.50
2023-05-04T08:45:16.336Z,16.60
2023-05-04T08:48:04.241Z,17.90
2023-05-04T08:50:52.554Z,16.90
2023-05-04T08:53:42.887Z,17.00
2023-05-04T08:56:30.533Z,17.10
2023-05-04T08:59:22.212Z,17.30
2023-05-04T09:02:10.686Z,17.20
2023-05-04T09:04:58.772Z,17.20
2023-05-04T09:07:49.103Z,17.80
2023-05-04T09:10:38.069Z,17.40
2023-05-04T09:13:26.524Z,17.50
2023-05-04T09:16:16.540Z,17.60
2023-05-04T09:19:07.581Z,18.30
2023-05-04T09:21:56.252Z,17.80
2023-05-04T09:24:44.704Z,18.30
2023-05-04T09:27:33.638Z,17.90
2023-05-04T09:30:22.514Z,18.00
2023-05-04T09:33:12.276Z,18.10
2023-05-04T09:36:01.590Z,18.20
2023-05-04T09:38:49.330Z,18.30
2023-05-04T09:41:37.445Z,18.30
2023-05-04T09:44:28.185Z,18.30
2023-05-04T09:47:18.696Z,18.40
2023-05-04T09:50:18.267Z,18.60
2023-05-04T09:53:09.624Z,18.80
2023-05-04T09:56:04.473Z,19.10
2023-05-04T09:58:54.251Z,19.00
2023-05-04T10:01:44.978Z,19.20
2023-05-04T10:04:33.253Z,19.30
2023-05-04T10:07:23.329Z,19.40
2023-05-04T10:10:13.122Z,19.40
2023-05-04T10:13:00.607Z,19.80
2023-05-04T10:15:52.795Z,21.60
2023-05-04T10:18:50.380Z,19.70
2023-05-04T10:21:45.401Z,19.80
2023-05-04T10:24:43.846Z,20.10
2023-05-04T10:27:40.702Z,20.10
2023-05-04T10:30:29.413Z,20.40
2023-05-04T10:33:23.289Z,21.60
2023-05-04T10:36:11.863Z,20.30
2023-05-04T10:39:13.622Z,20.50
2023-05-04T10:42:04.378Z,21.40
2023-05-04T10:44:55.456Z,21.00
2023-05-04T10:47:43.306Z,21.80
2023-05-04T10:50:31.859Z,21.00
2023-05-04T10:53:23.533Z,21.60
2023-05-04T10:56:20.828Z,21.40
2023-05-04T10:59:15.043Z,23.50
2023-05-04T11:02:03.722Z,21.10
2023-05-04T11:05:00.323Z,21.20
2023-05-04T11:07:56.109Z,21.70
2023-05-04T11:10:45.972Z,21.90
2023-05-04T11:13:35.158Z,22.00
2023-05-04T11:16:27.911Z,21.90
2023-05-04T11:19:19.226Z,22.20
2023-05-04T11:22:14.043Z,22.60
2023-05-04T11:25:02.597Z,23.10
2023-05-04T11:27:50.690Z,22.90
2023-05-04T11:30:45.476Z,23.20
2023-05-04T11:33:35.234Z,23.10
2023-05-04T11:36:23.874Z,25.30
2023-05-04T11:39:12.171Z,23.50
2023-05-04T11:42:01.319Z,24.40
2023-05-04T11:44:52.152Z,23.80
2023-05-04T11:47:41.293Z,23.70
2023-05-04T11:50:31.936Z,23.30
2023-05-04T11:53:22.980Z,23.50
2023-05-04T11:56:13.022Z,23.50
2023-05-04T11:59:09.354Z,23.60
2023-05-04T12:01:59.898Z,23.40
2023-05-04T12:04:49.001Z,23.40
2023-05-04T12:07:47.478Z,23.50
2023-05-04T12:10:36.213Z,24.00
2023-05-04T12:13:24.613Z,23.70
2023-05-04T12:16:12.770Z,23.90
2023-05-04T12:19:04.841Z,23.80
2023-05-04T12:21:58.072Z,23.60
2023-05-04T12:24:50.726Z,23.90
2023-05-04T12:27:42.194Z,23.60
2023-05-04T12:30:31.185Z,23.80
2023-05-04T12:33:19.302Z,24.00
2023-05-04T12:36:08.572Z,24.40
2023-05-04T12:38:55.968Z,24.00
2023-05-04T12:41:49.125Z,23.40
2023-05-04T12:44:37.067Z,23.60
2023-05-04T12:47:26.947Z,23.80
2023-05-04T12:50:14.933Z,24.00
2023-05-04T12:53:04.559Z,24.70
2023-05-04T12:55:52.373Z,23.80
2023-05-04T12:58:42.304Z,24.40
2023-05-04T13:01:30.974Z,24.40
2023-05-04T13:04:18.767Z,23.70
2023-05-04T13:07:07.370Z,25.20
2023-05-04T13:09:54.982Z,25.00
2023-05-04T13:12:46.018Z,24.90
2023-05-04T13:15:35.758Z,25.00
2023-05-04T13:18:27.408Z,25.10
2023-05-04T13:21:24.392Z,25.20
2023-05-04T13:24:14.980Z,25.60
2023-05-04T13:27:09.803Z,25.80
2023-05-04T13:30:03.168Z,25.80
2023-05-04T13:32:57.615Z,25.30
2023-05-04T13:35:49.540Z,25.20
2023-05-04T13:38:40.453Z,25.00
2023-05-04T13:41:27.829Z,25.10
2023-05-04T13:44:16.042Z,25.00
2023-05-04T13:47:04.776Z,24.90
2023-05-04T13:49:56.585Z,25.00
2023-05-04T13:52:47.983Z,25.40
2023-05-04T13:55:36.466Z,26.10
2023-05-04T13:58:24.402Z,26.40
2023-05-04T14:01:12.018Z,26.30
2023-05-04T14:04:00.251Z,26.60
2023-05-04T14:06:51.156Z,26.40
2023-05-04T14:09:40.032Z,26.50
2023-05-04T14:12:29.163Z,26.70
2023-05-04T14:15:24.706Z,26.30
2023-05-04T14:18:12.654Z,26.20
2023-05-04T14:21:00.845Z,25.90
2023-05-04T14:23:50.223Z,25.80
2023-05-04T14:26:38.259Z,26.10
2023-05-04T14:29:28.780Z,26.20
2023-05-04T14:32:16.725Z,26.10
2023-05-04T14:35:12.588Z,26.50
2023-05-04T14:38:03.134Z,26.90
2023-05-04T14:40:56.352Z,26.70
2023-05-04T14:43:53.267Z,27.90
2023-05-04T14:46:41.518Z,26.80
2023-05-04T14:49:37.060Z,29.10
2023-05-04T14:52:25.565Z,26.80
2023-05-04T14:55:17.041Z,26.90
2023-05-04T14:58:23.888Z,26.80
2023-05-04T15:01:13.528Z,26.80
2023-05-04T15:04:01.464Z,26.50
2023-05-04T15:06:50.730Z,26.60
2023-05-04T15:09:39.216Z,25.90
2023-05-04T15:12:28.956Z,25.80
2023-05-04T15:15:20.959Z,25.40
2023-05-04T15:18:11.961Z,25.30
2023-05-04T15:20:59.661Z,25.40
2023-05-04T15:23:48.666Z,25.50
2023-05-04T15:26:37.552Z,25.60
2023-05-04T15:29:28.018Z,25.60
2023-05-04T15:32:16.316Z,25.70
2023-05-04T15:35:20.718Z,26.00
2023-05-04T15:41:35.287Z,26.30
2023-05-04T15:44:24.502Z,26.00
2023-05-04T15:47:14.552Z,26.00
2023-05-04T15:50:05.001Z,26.00
2023-05-04T15:52:53.611Z,26.00
2023-05-04T15:55:41.656Z,26.00
2023-05-04T15:58:37.880Z,26.00
2023-05-04T16:01:28.426Z,26.20
2023-05-04T16:04:17.525Z,25.70
2023-05-04T16:11:39.376Z,25.90
2023-05-04T16:14:28.006Z,25.70
2023-05-04T16:17:17.920Z,25.50
2023-05-04T16:20:08.589Z,25.30
2023-05-04T16:22:56.991Z,25.70
2023-05-04T16:25:47.783Z,25.00
2023-05-04T16:28:37.373Z,25.00
2023-05-04T16:31:30.068Z,24.80
2023-05-04T16:34:18.866Z,24.80
2023-05-04T16:37:06.667Z,24.80
2023-05-04T16:39:55.537Z,24.90
2023-05-04T16:42:48.232Z,24.90
2023-05-04T16:45:37.405Z,24.80
2023-05-04T16:48:25.423Z,22.80
2023-05-04T16:51:13.972Z,24.60
2023-05-04T16:54:01.954Z,24.50
2023-05-04T16:56:50.533Z,24.40
2023-05-04T16:59:39.610Z,24.20
2023-05-04T17:02:31.915Z,24.10
2023-05-04T17:05:20.239Z,24.10
2023-05-04T17:08:07.949Z,24.00
2023-05-04T17:10:59.289Z,23.20
2023-05-04T17:13:47.665Z,24.30
2023-05-04T17:16:35.331Z,24.00
2023-05-04T17:19:24.723Z,23.70
2023-05-04T17:22:12.578Z,23.70
2023-05-04T17:25:00.804Z,23.80
2023-05-04T17:27:51.204Z,22.50
2023-05-04T17:30:40.583Z,23.50
2023-05-04T17:33:29.387Z,23.40
2023-05-04T17:36:18.653Z,23.70
2023-05-04T17:39:06.329Z,23.20
2023-05-04T17:41:54.461Z,23.00
2023-05-04T17:44:42.103Z,22.80
2023-05-04T17:47:31.498Z,22.80
2023-05-04T17:50:19.484Z,22.90
2023-05-04T17:53:08.854Z,22.80
2023-05-04T17:55:56.438Z,22.80
2023-05-04T17:58:43.939Z,22.40
2023-05-04T18:01:31.746Z,22.90
2023-05-04T18:04:19.661Z,22.90
2023-05-04T18:07:09.785Z,22.80
2023-05-04T18:09:59.383Z,22.80
2023-05-04T18:12:47.383Z,22.70
2023-05-04T18:15:35.588Z,22.70
2023-05-04T18:18:24.008Z,22.80
2023-05-04T18:21:14.082Z,22.70
2023-05-04T18:24:02.131Z,22.70
2023-05-04T18:26:54.290Z,22.60
2023-05-04T18:29:41.685Z,22.40
2023-05-04T18:32:31.461Z,22.20
2023-05-04T18:35:19.059Z,21.90
2023-05-04T18:38:07.457Z,21.80
2023-05-04T18:40:55.291Z,21.80
2023-05-04T18:43:44.528Z,21.60
2023-05-04T18:46:33.527Z,22.90
2023-05-04T18:49:21.080Z,21.30
2023-05-04T18:52:08.876Z,21.10
2023-05-04T18:54:57.316Z,20.90
2023-05-04T18:57:45.168Z,20.60
2023-05-04T19:00:35.466Z,20.50
2023-05-04T19:03:23.132Z,20.30
2023-05-04T19:06:11.004Z,20.20
2023-05-04T19:08:59.134Z,20.00
2023-05-04T19:11:47.683Z,19.80
2023-05-04T19:14:35.808Z,19.80
2023-05-04T19:17:24.948Z,19.70
2023-05-04T19:20:13.107Z,19.80
2023-05-04T19:23:00.804Z,19.60
2023-05-04T19:25:49.048Z,19.50
2023-05-04T19:28:40.289Z,19.50
2023-05-04T19:31:28.035Z,19.40
2023-05-04T19:34:17.954Z,19.40
2023-05-04T19:37:08.823Z,19.90
2023-05-04T19:39:58.035Z,19.20
2023-05-04T19:42:46.339Z,19.20
2023-05-04T19:45:34.119Z,19.30
2023-05-04T19:48:21.974Z,19.20
2023-05-04T19:51:10.927Z,19.10
2023-05-04T19:53:58.659Z,19.00
2023-05-04T19:56:46.503Z,18.80
2023-05-04T19:59:34.598Z,18.80
2023-05-04T20:02:22.151Z,18.70
2023-05-04T20:05:10.183Z,18.60
2023-05-04T20:08:04.780Z,18.50
2023-05-04T20:10:53.221Z,18.50
2023-05-04T20:13:42.762Z,18.60
2023-05-04T20:16:30.216Z,18.50
2023-05-04T20:19:18.878Z,18.50
2023-05-04T20:22:07.170Z,17.90
2023-05-04T20:25:00.137Z,18.40
2023-05-04T20:27:48.885Z,18.40
2023-05-04T20:30:37.729Z,18.30
2023-05-04T20:33:25.180Z,18.30
2023-05-04T20:36:12.951Z,18.40
2023-05-04T20:39:02.649Z,18.60
2023-05-04T20:41:51.856Z,18.80
2023-05-04T20:44:39.569Z,18.90
2023-05-04T20:47:27.800Z,19.00
2023-05-04T20:50:17.976Z,19.00
2023-05-04T20:53:05.612Z,18.90
2023-05-04T20:55:53.634Z,18.80
2023-05-04T20:58:42.787Z,18.40
2023-05-04T21:01:31.091Z,16.10
2023-05-04T21:04:19.377Z,18.70
2023-05-04T21:07:07.084Z,18.90
2023-05-04T21:09:57.145Z,18.10
2023-05-04T21:12:46.052Z,18.00
2023-05-04T21:15:36.611Z,18.00
2023-05-04T21:18:26.789Z,18.00
2023-05-04T21:21:16.273Z,18.00
2023-05-04T21:24:04.153Z,18.40
2023-05-04T21:26:52.116Z,18.30
2023-05-04T21:29:40.673Z,18.40
2023-05-04T21:32:29.830Z,18.60
2023-05-04T21:35:21.310Z,19.50
2023-05-04T21:38:08.619Z,19.60
2023-05-04T21:40:57.948Z,18.60
2023-05-04T21:43:45.854Z,18.50
2023-05-04T21:46:33.428Z,18.60
2023-05-04T21:49:22.518Z,18.30
2023-05-04T21:52:10.257Z,18.30
2023-05-04T21:54:58.953Z,17.90
2023-05-04T21:57:47.553Z,17.50
2023-05-04T22:00:39.468Z,17.30
2023-05-04T22:03:30.971Z,16.90
2023-05-04T22:06:24.686Z,16.80
2023-05-04T22:09:13.650Z,16.50
2023-05-04T22:12:02.546Z,16.50
2023-05-04T22:14:50.071Z,16.50
2023-05-04T22:17:37.872Z,16.40
2023-05-04T22:20:30.764Z,16.30
2023-05-04T22:23:20.934Z,16.30
2023-05-04T22:26:08.849Z,16.30
2023-05-04T22:28:57.286Z,16.40
2023-05-04T22:31:45.323Z,16.20
2023-05-04T22:34:32.913Z,16.30
2023-05-04T22:37:20.466Z,16.10
2023-05-04T22:40:12.608Z,16.00
2023-05-04T22:43:00.750Z,16.00
2023-05-04T22:45:48.754Z,15.90
2023-05-04T22:48:38.089Z,16.00
2023-05-04T22:51:25.880Z,16.10
2023-05-04T22:54:13.454Z,16.10
2023-05-04T22:57:02.396Z,16.00
2023-05-04T22:59:50.306Z,16.30
2023-05-04T23:02:38.058Z,16.20
2023-05-04T23:05:25.961Z,16.10
2023-05-04T23:08:14.051Z,16.10
2023-05-04T23:11:01.511Z,16.20
2023-05-04T23:13:53.934Z,16.20
2023-05-04T23:16:43.186Z,16.30
2023-05-04T23:19:32.832Z,16.30
2023-05-04T23:22:20.711Z,16.50
2023-05-04T23:25:09.056Z,16.90
2023-05-04T23:27:57.001Z,17.00
2023-05-04T23:30:45.823Z,16.60
2023-05-04T23:33:34.201Z,17.10
2023-05-04T23:36:23.184Z,18.90
2023-05-04T23:39:11.083Z,16.60
2023-05-04T23:42:00.650Z,16.60
2023-05-04T23:44:52.090Z,16.60
2023-05-04T23:47:42.510Z,16.60
2023-05-04T23:50:30.574Z,16.60
2023-05-04T23:53:18.620Z,16.60
2023-05-04T23:56:06.844Z,16.50
2023-05-04T23:58:54.758Z,16.40
